sensor_id;sensor_type;location;lat;lon;timestamp;pressure;altitude;pressure_sealevel;temperature;humidity
76022;BME280;64718;52.124;6.226;2023-02-15T00:00:23;102986.78;;;-1.16;100.00
76022;BME280;64718;52.124;6.226;2023-02-15T00:02:49;102991.97;;;-1.14;100.00
76022;BME280;64718;52.124;6.226;2023-02-15T00:05:17;102986.53;;;-1.22;100.00
76022;BME280;64718;52.124;6.226;2023-02-15T00:07:44;102991.81;;;-1.38;100.00
76022;BME280;64718;52.124;6.226;2023-02-15T00:10:10;102988.09;;;-1.46;100.00
76022;BME280;64718;52.124;6.226;2023-02-15T00:12:37;102973.47;;;-1.50;100.00
76022;BME280;64718;52.124;6.226;2023-02-15T00:15:04;102976.28;;;-1.44;100.00
76022;BME280;64718;52.124;6.226;2023-02-15T00:17:30;102973.72;;;-1.44;100.00
76022;BME280;64718;52.124;6.226;2023-02-15T00:19:57;102963.94;;;-1.34;100.00
76022;BME280;64718;52.124;6.226;2023-02-15T00:22:25;102967.72;;;-1.24;100.00
76022;BME280;64718;52.124;6.226;2023-02-15T00:24:52;102961.41;;;-1.13;100.00
76022;BME280;64718;52.124;6.226;2023-02-15T00:27:18;102966.50;;;-1.13;100.00
76022;BME280;64718;52.124;6.226;2023-02-15T00:29:46;102952.41;;;-1.24;100.00
76022;BME280;64718;52.124;6.226;2023-02-15T00:32:13;102955.09;;;-1.21;100.00
76022;BME280;64718;52.124;6.226;2023-02-15T00:34:39;102953.91;;;-1.29;100.00
76022;BME280;64718;52.124;6.226;2023-02-15T00:37:06;102960.53;;;-1.34;100.00
76022;BME280;64718;52.124;6.226;2023-02-15T00:39:33;102943.22;;;-1.41;100.00
76022;BME280;64718;52.124;6.226;2023-02-15T00:42:00;102950.13;;;-1.60;100.00
76022;BME280;64718;52.124;6.226;2023-02-15T00:44:26;102946.03;;;-1.75;100.00
76022;BME280;64718;52.124;6.226;2023-02-15T00:46:53;102952.44;;;-1.66;100.00
76022;BME280;64718;52.124;6.226;2023-02-15T00:49:19;102949.22;;;-1.81;100.00
76022;BME280;64718;52.124;6.226;2023-02-15T00:51:46;102960.34;;;-1.79;100.00
76022;BME280;64718;52.124;6.226;2023-02-15T00:54:12;102962.56;;;-1.86;100.00
76022;BME280;64718;52.124;6.226;2023-02-15T00:56:40;102960.63;;;-1.92;100.00
76022;BME280;64718;52.124;6.226;2023-02-15T00:59:08;102961.78;;;-1.85;100.00
76022;BME280;64718;52.124;6.226;2023-02-15T01:01:34;102957.41;;;-1.88;100.00
76022;BME280;64718;52.124;6.226;2023-02-15T01:04:01;102965.53;;;-1.97;100.00
76022;BME280;64718;52.124;6.226;2023-02-15T01:06:28;102960.38;;;-1.98;100.00
76022;BME280;64718;52.124;6.226;2023-02-15T01:08:54;102959.69;;;-1.94;100.00
76022;BME280;64718;52.124;6.226;2023-02-15T01:11:22;102960.56;;;-1.94;100.00
76022;BME280;64718;52.124;6.226;2023-02-15T01:13:51;102953.72;;;-1.95;100.00
76022;BME280;64718;52.124;6.226;2023-02-15T01:16:18;102943.66;;;-1.92;100.00
76022;BME280;64718;52.124;6.226;2023-02-15T01:18:45;102943.84;;;-1.87;100.00
76022;BME280;64718;52.124;6.226;2023-02-15T01:21:12;102944.66;;;-1.88;100.00
76022;BME280;64718;52.124;6.226;2023-02-15T01:23:40;102948.38;;;-2.01;100.00
76022;BME280;64718;52.124;6.226;2023-02-15T01:26:07;102943.06;;;-2.05;100.00
76022;BME280;64718;52.124;6.226;2023-02-15T01:28:34;102938.19;;;-2.20;100.00
76022;BME280;64718;52.124;6.226;2023-02-15T01:31:06;102930.88;;;-2.12;100.00
76022;BME280;64718;52.124;6.226;2023-02-15T01:33:33;102926.81;;;-1.88;100.00
76022;BME280;64718;52.124;6.226;2023-02-15T01:36:00;102925.88;;;-1.71;100.00
76022;BME280;64718;52.124;6.226;2023-02-15T01:38:26;102916.91;;;-1.61;100.00
76022;BME280;64718;52.124;6.226;2023-02-15T01:40:53;102913.59;;;-1.58;100.00
76022;BME280;64718;52.124;6.226;2023-02-15T01:43:41;102914.34;;;-1.61;100.00
76022;BME280;64718;52.124;6.226;2023-02-15T01:46:09;102909.41;;;-1.77;100.00
76022;BME280;64718;52.124;6.226;2023-02-15T01:48:45;102904.13;;;-1.82;100.00
76022;BME280;64718;52.124;6.226;2023-02-15T01:51:14;102905.22;;;-1.96;100.00
76022;BME280;64718;52.124;6.226;2023-02-15T01:53:46;102907.13;;;-2.11;100.00
76022;BME280;64718;52.124;6.226;2023-02-15T01:56:17;102896.34;;;-2.25;100.00
76022;BME280;64718;52.124;6.226;2023-02-15T01:58:46;102889.03;;;-2.17;100.00
76022;BME280;64718;52.124;6.226;2023-02-15T02:01:15;102893.22;;;-1.99;100.00
76022;BME280;64718;52.124;6.226;2023-02-15T02:03:49;102896.97;;;-1.91;100.00
76022;BME280;64718;52.124;6.226;2023-02-15T02:06:20;102901.19;;;-1.91;100.00
76022;BME280;64718;52.124;6.226;2023-02-15T02:08:47;102896.16;;;-1.89;100.00
76022;BME280;64718;52.124;6.226;2023-02-15T02:11:15;102886.00;;;-2.09;100.00
76022;BME280;64718;52.124;6.226;2023-02-15T02:13:43;102889.16;;;-2.14;100.00
76022;BME280;64718;52.124;6.226;2023-02-15T02:16:16;102888.44;;;-2.31;100.00
76022;BME280;64718;52.124;6.226;2023-02-15T02:18:58;102892.13;;;-2.44;100.00
76022;BME280;64718;52.124;6.226;2023-02-15T02:24:58;102881.25;;;-2.40;100.00
76022;BME280;64718;52.124;6.226;2023-02-15T02:27:33;102873.28;;;-2.47;100.00
76022;BME280;64718;52.124;6.226;2023-02-15T02:33:45;102875.16;;;-2.63;100.00
76022;BME280;64718;52.124;6.226;2023-02-15T02:36:19;102872.53;;;-2.64;100.00
76022;BME280;64718;52.124;6.226;2023-02-15T02:39:06;102870.53;;;-2.52;100.00
76022;BME280;64718;52.124;6.226;2023-02-15T02:41:39;102865.16;;;-2.39;100.00
76022;BME280;64718;52.124;6.226;2023-02-15T02:44:13;102870.66;;;-2.49;100.00
76022;BME280;64718;52.124;6.226;2023-02-15T02:46:50;102869.00;;;-2.29;100.00
76022;BME280;64718;52.124;6.226;2023-02-15T02:49:29;102867.25;;;-2.30;100.00
76022;BME280;64718;52.124;6.226;2023-02-15T02:51:58;102866.59;;;-2.26;100.00
76022;BME280;64718;52.124;6.226;2023-02-15T02:54:25;102861.88;;;-2.17;100.00
76022;BME280;64718;52.124;6.226;2023-02-15T02:56:52;102860.38;;;-2.12;100.00
76022;BME280;64718;52.124;6.226;2023-02-15T02:59:24;102853.78;;;-2.07;100.00
76022;BME280;64718;52.124;6.226;2023-02-15T03:01:56;102855.59;;;-2.04;100.00
76022;BME280;64718;52.124;6.226;2023-02-15T03:04:27;102854.41;;;-2.12;100.00
76022;BME280;64718;52.124;6.226;2023-02-15T03:06:58;102852.59;;;-2.15;100.00
76022;BME280;64718;52.124;6.226;2023-02-15T03:09:28;102848.31;;;-2.16;100.00
76022;BME280;64718;52.124;6.226;2023-02-15T03:12:00;102847.31;;;-2.19;100.00
76022;BME280;64718;52.124;6.226;2023-02-15T03:14:27;102845.13;;;-2.31;100.00
76022;BME280;64718;52.124;6.226;2023-02-15T03:16:54;102842.97;;;-2.41;100.00
76022;BME280;64718;52.124;6.226;2023-02-15T03:19:24;102839.56;;;-2.42;100.00
76022;BME280;64718;52.124;6.226;2023-02-15T03:21:57;102832.28;;;-2.33;100.00
76022;BME280;64718;52.124;6.226;2023-02-15T03:24:36;102834.03;;;-2.32;100.00
76022;BME280;64718;52.124;6.226;2023-02-15T03:27:07;102834.78;;;-2.34;100.00
76022;BME280;64718;52.124;6.226;2023-02-15T03:29:37;102836.38;;;-2.36;100.00
76022;BME280;64718;52.124;6.226;2023-02-15T03:32:07;102834.47;;;-2.42;100.00
76022;BME280;64718;52.124;6.226;2023-02-15T03:34:36;102822.66;;;-2.40;100.00
76022;BME280;64718;52.124;6.226;2023-02-15T03:37:10;102825.31;;;-2.37;100.00
76022;BME280;64718;52.124;6.226;2023-02-15T03:39:42;102828.94;;;-2.32;100.00
76022;BME280;64718;52.124;6.226;2023-02-15T03:42:14;102828.63;;;-2.39;100.00
76022;BME280;64718;52.124;6.226;2023-02-15T03:44:51;102820.72;;;-2.45;100.00
76022;BME280;64718;52.124;6.226;2023-02-15T03:47:23;102811.53;;;-2.42;100.00
76022;BME280;64718;52.124;6.226;2023-02-15T03:49:53;102819.16;;;-2.42;100.00
76022;BME280;64718;52.124;6.226;2023-02-15T03:52:25;102818.91;;;-2.48;100.00
76022;BME280;64718;52.124;6.226;2023-02-15T03:54:52;102816.25;;;-2.51;100.00
76022;BME280;64718;52.124;6.226;2023-02-15T03:57:21;102816.50;;;-2.45;100.00
76022;BME280;64718;52.124;6.226;2023-02-15T04:00:11;102810.03;;;-2.37;100.00
76022;BME280;64718;52.124;6.226;2023-02-15T04:03:20;102815.50;;;-2.29;100.00
76022;BME280;64718;52.124;6.226;2023-02-15T04:05:49;102809.59;;;-2.28;100.00
76022;BME280;64718;52.124;6.226;2023-02-15T04:08:17;102803.63;;;-2.29;100.00
76022;BME280;64718;52.124;6.226;2023-02-15T04:10:43;102811.03;;;-2.33;100.00
76022;BME280;64718;52.124;6.226;2023-02-15T04:13:18;102814.69;;;-2.28;100.00
76022;BME280;64718;52.124;6.226;2023-02-15T04:15:44;102810.34;;;-2.31;100.00
76022;BME280;64718;52.124;6.226;2023-02-15T04:18:28;102805.06;;;-2.34;100.00
76022;BME280;64718;52.124;6.226;2023-02-15T04:21:13;102803.34;;;-2.35;100.00
76022;BME280;64718;52.124;6.226;2023-02-15T04:23:58;102794.75;;;-2.17;100.00
76022;BME280;64718;52.124;6.226;2023-02-15T04:26:42;102796.44;;;-2.37;100.00
76022;BME280;64718;52.124;6.226;2023-02-15T04:29:08;102792.50;;;-2.31;100.00
76022;BME280;64718;52.124;6.226;2023-02-15T04:31:35;102801.88;;;-2.30;100.00
76022;BME280;64718;52.124;6.226;2023-02-15T04:34:02;102796.34;;;-2.19;100.00
76022;BME280;64718;52.124;6.226;2023-02-15T04:36:28;102792.00;;;-2.22;100.00
76022;BME280;64718;52.124;6.226;2023-02-15T04:38:55;102798.97;;;-2.18;100.00
76022;BME280;64718;52.124;6.226;2023-02-15T04:41:22;102792.00;;;-2.22;100.00
76022;BME280;64718;52.124;6.226;2023-02-15T04:43:49;102790.69;;;-2.12;100.00
76022;BME280;64718;52.124;6.226;2023-02-15T04:46:15;102786.66;;;-2.07;100.00
76022;BME280;64718;52.124;6.226;2023-02-15T04:48:42;102780.38;;;-2.15;100.00
76022;BME280;64718;52.124;6.226;2023-02-15T04:51:09;102787.41;;;-2.31;100.00
76022;BME280;64718;52.124;6.226;2023-02-15T04:53:36;102786.00;;;-2.43;100.00
76022;BME280;64718;52.124;6.226;2023-02-15T04:56:03;102777.16;;;-2.51;100.00
76022;BME280;64718;52.124;6.226;2023-02-15T04:58:31;102775.66;;;-2.27;100.00
76022;BME280;64718;52.124;6.226;2023-02-15T05:00:57;102775.84;;;-2.22;100.00
76022;BME280;64718;52.124;6.226;2023-02-15T05:03:24;102784.69;;;-2.34;100.00
76022;BME280;64718;52.124;6.226;2023-02-15T05:05:51;102779.97;;;-2.45;100.00
76022;BME280;64718;52.124;6.226;2023-02-15T05:08:18;102776.06;;;-2.37;100.00
76022;BME280;64718;52.124;6.226;2023-02-15T05:10:44;102772.25;;;-2.28;100.00
76022;BME280;64718;52.124;6.226;2023-02-15T05:13:11;102774.66;;;-2.10;100.00
76022;BME280;64718;52.124;6.226;2023-02-15T05:15:39;102778.56;;;-2.18;100.00
76022;BME280;64718;52.124;6.226;2023-02-15T05:18:05;102776.66;;;-2.24;100.00
76022;BME280;64718;52.124;6.226;2023-02-15T05:20:32;102768.75;;;-2.30;100.00
76022;BME280;64718;52.124;6.226;2023-02-15T05:22:59;102776.53;;;-2.27;100.00
76022;BME280;64718;52.124;6.226;2023-02-15T05:25:25;102776.53;;;-2.27;100.00
76022;BME280;64718;52.124;6.226;2023-02-15T05:28:10;102776.81;;;-1.98;100.00
76022;BME280;64718;52.124;6.226;2023-02-15T05:30:47;102771.88;;;-2.16;100.00
76022;BME280;64718;52.124;6.226;2023-02-15T05:33:14;102763.28;;;-2.18;100.00
76022;BME280;64718;52.124;6.226;2023-02-15T05:35:40;102771.38;;;-2.28;100.00
76022;BME280;64718;52.124;6.226;2023-02-15T05:38:07;102771.03;;;-2.36;100.00
76022;BME280;64718;52.124;6.226;2023-02-15T05:40:33;102762.22;;;-2.23;100.00
76022;BME280;64718;52.124;6.226;2023-02-15T05:43:00;102756.81;;;-2.10;100.00
76022;BME280;64718;52.124;6.226;2023-02-15T05:45:26;102767.88;;;-2.09;100.00
76022;BME280;64718;52.124;6.226;2023-02-15T05:47:54;102760.97;;;-2.12;100.00
76022;BME280;64718;52.124;6.226;2023-02-15T05:50:23;102760.63;;;-2.21;100.00
76022;BME280;64718;52.124;6.226;2023-02-15T05:52:49;102749.78;;;-2.15;100.00
76022;BME280;64718;52.124;6.226;2023-02-15T05:55:16;102756.69;;;-2.13;100.00
76022;BME280;64718;52.124;6.226;2023-02-15T05:57:43;102760.63;;;-2.21;100.00
76022;BME280;64718;52.124;6.226;2023-02-15T06:00:11;102762.03;;;-2.28;100.00
76022;BME280;64718;52.124;6.226;2023-02-15T06:02:39;102759.81;;;-2.20;100.00
76022;BME280;64718;52.124;6.226;2023-02-15T06:05:08;102760.16;;;-2.11;100.00
76022;BME280;64718;52.124;6.226;2023-02-15T06:07:34;102762.69;;;-1.90;100.00
76022;BME280;64718;52.124;6.226;2023-02-15T06:10:01;102765.28;;;-2.11;100.00
76022;BME280;64718;52.124;6.226;2023-02-15T06:12:28;102763.78;;;-2.06;100.00
76022;BME280;64718;52.124;6.226;2023-02-15T06:14:54;102761.84;;;-2.11;100.00
76022;BME280;64718;52.124;6.226;2023-02-15T06:17:21;102766.44;;;-2.03;100.00
76022;BME280;64718;52.124;6.226;2023-02-15T06:19:47;102774.59;;;-2.11;100.00
76022;BME280;64718;52.124;6.226;2023-02-15T06:22:15;102765.59;;;-2.24;100.00
76022;BME280;64718;52.124;6.226;2023-02-15T06:24:42;102765.44;;;-2.06;100.00
76022;BME280;64718;52.124;6.226;2023-02-15T06:27:09;102763.09;;;-2.02;100.00
76022;BME280;64718;52.124;6.226;2023-02-15T06:29:35;102765.13;;;-1.93;100.00
76022;BME280;64718;52.124;6.226;2023-02-15T06:32:02;102769.75;;;-2.05;100.00
76022;BME280;64718;52.124;6.226;2023-02-15T06:34:29;102767.81;;;-2.11;100.00
76022;BME280;64718;52.124;6.226;2023-02-15T06:36:56;102780.81;;;-2.05;100.00
76022;BME280;64718;52.124;6.226;2023-02-15T06:39:24;102773.97;;;-2.06;100.00
76022;BME280;64718;52.124;6.226;2023-02-15T06:41:50;102771.78;;;-1.97;100.00
76022;BME280;64718;52.124;6.226;2023-02-15T06:44:17;102770.97;;;-1.96;100.00
76022;BME280;64718;52.124;6.226;2023-02-15T06:46:43;102771.84;;;-1.95;100.00
76022;BME280;64718;52.124;6.226;2023-02-15T06:49:10;102767.16;;;-1.84;100.00
76022;BME280;64718;52.124;6.226;2023-02-15T06:51:36;102762.31;;;-1.78;100.00
76022;BME280;64718;52.124;6.226;2023-02-15T06:54:03;102764.03;;;-1.77;100.00
76022;BME280;64718;52.124;6.226;2023-02-15T06:56:31;102757.53;;;-1.71;100.00
76022;BME280;64718;52.124;6.226;2023-02-15T06:58:57;102756.72;;;-1.70;100.00
76022;BME280;64718;52.124;6.226;2023-02-15T07:01:24;102758.06;;;-1.78;100.00
76022;BME280;64718;52.124;6.226;2023-02-15T07:03:50;102751.19;;;-1.80;100.00
76022;BME280;64718;52.124;6.226;2023-02-15T07:06:17;102748.81;;;-1.76;100.00
76022;BME280;64718;52.124;6.226;2023-02-15T07:08:43;102750.06;;;-1.66;100.00
76022;BME280;64718;52.124;6.226;2023-02-15T07:11:10;102753.41;;;-1.67;100.00
76022;BME280;64718;52.124;6.226;2023-02-15T07:13:56;102752.22;;;-1.75;100.00
76022;BME280;64718;52.124;6.226;2023-02-15T07:16:22;102756.16;;;-1.83;100.00
76022;BME280;64718;52.124;6.226;2023-02-15T07:18:49;102748.19;;;-1.70;100.00
76022;BME280;64718;52.124;6.226;2023-02-15T07:21:15;102743.78;;;-1.52;100.00
76022;BME280;64718;52.124;6.226;2023-02-15T07:23:42;102742.72;;;-1.35;100.00
76022;BME280;64718;52.124;6.226;2023-02-15T07:26:08;102739.41;;;-1.32;100.00
76022;BME280;64718;52.124;6.226;2023-02-15T07:28:35;102734.25;;;-1.11;100.00
76022;BME280;64718;52.124;6.226;2023-02-15T07:31:04;102734.28;;;-1.10;100.00
76022;BME280;64718;52.124;6.226;2023-02-15T07:33:31;102729.13;;;-1.11;100.00
76022;BME280;64718;52.124;6.226;2023-02-15T07:35:59;102727.94;;;-0.97;100.00
76022;BME280;64718;52.124;6.226;2023-02-15T07:38:27;102729.13;;;-0.87;100.00
76022;BME280;64718;52.124;6.226;2023-02-15T07:40:57;102716.50;;;-0.83;100.00
76022;BME280;64718;52.124;6.226;2023-02-15T07:43:24;102717.03;;;-0.68;100.00
76022;BME280;64718;52.124;6.226;2023-02-15T07:45:51;102714.78;;;-0.58;100.00
76022;BME280;64718;52.124;6.226;2023-02-15T07:48:19;102712.84;;;-0.40;100.00
76022;BME280;64718;52.124;6.226;2023-02-15T07:50:45;102717.31;;;0.49;100.00
76022;BME280;64718;52.124;6.226;2023-02-15T07:53:12;102715.56;;;1.08;100.00
76022;BME280;64718;52.124;6.226;2023-02-15T07:55:38;102713.41;;;1.56;100.00
76022;BME280;64718;52.124;6.226;2023-02-15T07:58:05;102702.50;;;2.00;100.00
76022;BME280;64718;52.124;6.226;2023-02-15T08:00:31;102704.81;;;2.28;100.00
76022;BME280;64718;52.124;6.226;2023-02-15T08:03:19;102702.47;;;2.79;100.00
76022;BME280;64718;52.124;6.226;2023-02-15T08:05:49;102700.53;;;3.11;100.00
76022;BME280;64718;52.124;6.226;2023-02-15T08:08:16;102697.75;;;2.99;100.00
76022;BME280;64718;52.124;6.226;2023-02-15T08:10:58;102703.31;;;2.78;100.00
76022;BME280;64718;52.124;6.226;2023-02-15T08:13:49;102694.72;;;3.22;100.00
76022;BME280;64718;52.124;6.226;2023-02-15T08:16:25;102691.41;;;3.29;100.00
76022;BME280;64718;52.124;6.226;2023-02-15T08:18:54;102687.75;;;3.66;100.00
76022;BME280;64718;52.124;6.226;2023-02-15T08:21:21;102682.31;;;4.03;100.00
76022;BME280;64718;52.124;6.226;2023-02-15T08:23:48;102676.47;;;4.13;100.00
76022;BME280;64718;52.124;6.226;2023-02-15T08:26:15;102681.44;;;4.03;100.00
76022;BME280;64718;52.124;6.226;2023-02-15T08:28:42;102672.69;;;3.90;100.00
76022;BME280;64718;52.124;6.226;2023-02-15T08:31:10;102663.66;;;4.18;100.00
76022;BME280;64718;52.124;6.226;2023-02-15T08:33:38;102673.28;;;4.34;100.00
76022;BME280;64718;52.124;6.226;2023-02-15T08:36:08;102671.50;;;4.27;100.00
76022;BME280;64718;52.124;6.226;2023-02-15T08:38:36;102674.84;;;4.22;100.00
76022;BME280;64718;52.124;6.226;2023-02-15T08:41:10;102683.56;;;4.31;100.00
76022;BME280;64718;52.124;6.226;2023-02-15T08:43:37;102681.41;;;4.01;100.00
76022;BME280;64718;52.124;6.226;2023-02-15T08:46:04;102677.28;;;4.11;100.00
76022;BME280;64718;52.124;6.226;2023-02-15T08:48:31;102675.31;;;4.60;100.00
76022;BME280;64718;52.124;6.226;2023-02-15T08:50:58;102670.88;;;4.47;100.00
76022;BME280;64718;52.124;6.226;2023-02-15T08:53:26;102669.56;;;4.81;100.00
76022;BME280;64718;52.124;6.226;2023-02-15T08:55:56;102655.91;;;4.91;100.00
76022;BME280;64718;52.124;6.226;2023-02-15T08:58:23;102656.44;;;4.61;100.00
76022;BME280;64718;52.124;6.226;2023-02-15T09:00:49;102652.94;;;4.56;100.00
76022;BME280;64718;52.124;6.226;2023-02-15T09:03:16;102649.22;;;4.31;100.00
76022;BME280;64718;52.124;6.226;2023-02-15T09:05:42;102647.44;;;4.27;100.00
76022;BME280;64718;52.124;6.226;2023-02-15T09:08:09;102645.53;;;4.10;100.00
76022;BME280;64718;52.124;6.226;2023-02-15T09:10:37;102644.75;;;4.16;100.00
76022;BME280;64718;52.124;6.226;2023-02-15T09:13:03;102643.41;;;3.82;100.00
76022;BME280;64718;52.124;6.226;2023-02-15T09:15:30;102638.41;;;3.94;100.00
76022;BME280;64718;52.124;6.226;2023-02-15T09:17:56;102648.50;;;3.79;100.00
76022;BME280;64718;52.124;6.226;2023-02-15T09:20:24;102647.69;;;3.81;100.00
76022;BME280;64718;52.124;6.226;2023-02-15T09:22:51;102653.69;;;3.82;100.00
76022;BME280;64718;52.124;6.226;2023-02-15T09:25:19;102650.41;;;3.94;100.00
76022;BME280;64718;52.124;6.226;2023-02-15T09:27:47;102645.38;;;4.01;100.00
76022;BME280;64718;52.124;6.226;2023-02-15T09:30:14;102648.13;;;4.13;100.00
76022;BME280;64718;52.124;6.226;2023-02-15T09:32:41;102650.00;;;4.25;100.00
76022;BME280;64718;52.124;6.226;2023-02-15T09:35:07;102656.13;;;4.35;100.00
76022;BME280;64718;52.124;6.226;2023-02-15T09:37:34;102656.19;;;4.39;100.00
76022;BME280;64718;52.124;6.226;2023-02-15T09:40:00;102657.19;;;4.52;100.00
76022;BME280;64718;52.124;6.226;2023-02-15T09:45:28;102648.91;;;4.76;100.00
76022;BME280;64718;52.124;6.226;2023-02-15T09:48:19;102652.41;;;4.84;100.00
76022;BME280;64718;52.124;6.226;2023-02-15T09:50:55;102643.84;;;4.87;100.00
76022;BME280;64718;52.124;6.226;2023-02-15T09:53:27;102643.16;;;5.03;100.00
76022;BME280;64718;52.124;6.226;2023-02-15T09:55:59;102641.38;;;4.99;100.00
76022;BME280;64718;52.124;6.226;2023-02-15T09:58:36;102638.06;;;5.11;100.00
76022;BME280;64718;52.124;6.226;2023-02-15T10:01:14;102642.53;;;5.27;100.00
76022;BME280;64718;52.124;6.226;2023-02-15T10:03:53;102634.00;;;5.35;100.00
76022;BME280;64718;52.124;6.226;2023-02-15T10:06:32;102632.34;;;5.44;100.00
76022;BME280;64718;52.124;6.226;2023-02-15T10:09:17;102635.00;;;5.54;100.00
76022;BME280;64718;52.124;6.226;2023-02-15T10:11:58;102636.84;;;5.77;100.00
76022;BME280;64718;52.124;6.226;2023-02-15T10:14:49;102631.00;;;5.96;100.00
76022;BME280;64718;52.124;6.226;2023-02-15T10:17:34;102632.78;;;6.08;100.00
76022;BME280;64718;52.124;6.226;2023-02-15T10:20:13;102629.41;;;6.24;100.00
76022;BME280;64718;52.124;6.226;2023-02-15T10:22:57;102621.69;;;6.31;100.00
76022;BME280;64718;52.124;6.226;2023-02-15T10:25:36;102626.94;;;6.50;100.00
76022;BME280;64718;52.124;6.226;2023-02-15T10:28:14;102623.53;;;6.66;100.00
76022;BME280;64718;52.124;6.226;2023-02-15T10:30:46;102623.53;;;6.74;100.00
76022;BME280;64718;52.124;6.226;2023-02-15T10:33:26;102623.53;;;6.74;100.00
76022;BME280;64718;52.124;6.226;2023-02-15T10:36:05;102634.75;;;6.73;99.66
76022;BME280;64718;52.124;6.226;2023-02-15T10:38:40;102627.84;;;6.72;98.72
76022;BME280;64718;52.124;6.226;2023-02-15T10:41:15;102626.13;;;6.81;98.08
76022;BME280;64718;52.124;6.226;2023-02-15T10:43:56;102627.00;;;6.88;96.92
76022;BME280;64718;52.124;6.226;2023-02-15T10:46:39;102619.31;;;7.09;97.38
76022;BME280;64718;52.124;6.226;2023-02-15T10:49:26;102621.03;;;7.33;97.88
76022;BME280;64718;52.124;6.226;2023-02-15T10:52:09;102620.16;;;7.42;95.89
76022;BME280;64718;52.124;6.226;2023-02-15T10:54:45;102624.47;;;7.47;94.59
76022;BME280;64718;52.124;6.226;2023-02-15T10:57:21;102617.56;;;7.60;94.75
76022;BME280;64718;52.124;6.226;2023-02-15T11:00:03;102618.41;;;7.68;93.62
76022;BME280;64718;52.124;6.226;2023-02-15T11:02:42;102617.50;;;7.86;95.11
76022;BME280;64718;52.124;6.226;2023-02-15T11:05:26;102612.31;;;7.86;92.71
76022;BME280;64718;52.124;6.226;2023-02-15T11:07:59;102619.16;;;8.08;94.49
76022;BME280;64718;52.124;6.226;2023-02-15T11:10:32;102613.97;;;8.08;92.60
76022;BME280;64718;52.124;6.226;2023-02-15T11:13:04;102608.81;;;8.10;93.00
76022;BME280;64718;52.124;6.226;2023-02-15T11:15:36;102609.66;;;8.16;93.35
76022;BME280;64718;52.124;6.226;2023-02-15T11:18:10;102606.16;;;8.23;93.27
76022;BME280;64718;52.124;6.226;2023-02-15T11:20:52;102594.97;;;8.15;93.56
76022;BME280;64718;52.124;6.226;2023-02-15T11:23:21;102594.09;;;8.18;94.20
76022;BME280;64718;52.124;6.226;2023-02-15T11:25:56;102591.44;;;8.30;92.59
76022;BME280;64718;52.124;6.226;2023-02-15T11:28:27;102589.69;;;8.38;92.80
76022;BME280;64718;52.124;6.226;2023-02-15T11:30:58;102587.06;;;8.47;92.37
76022;BME280;64718;52.124;6.226;2023-02-15T11:33:29;102588.66;;;8.70;91.96
76022;BME280;64718;52.124;6.226;2023-02-15T11:36:00;102585.94;;;8.88;91.02
76022;BME280;64718;52.124;6.226;2023-02-15T11:38:32;102572.88;;;8.99;90.23
76022;BME280;64718;52.124;6.226;2023-02-15T11:41:02;102577.00;;;9.23;90.55
76022;BME280;64718;52.124;6.226;2023-02-15T11:43:34;102576.94;;;9.30;89.16
76022;BME280;64718;52.124;6.226;2023-02-15T11:46:02;102570.03;;;9.31;88.75
76022;BME280;64718;52.124;6.226;2023-02-15T11:48:30;102565.47;;;9.52;88.88
76022;BME280;64718;52.124;6.226;2023-02-15T11:50:59;102574.03;;;9.62;87.45
76022;BME280;64718;52.124;6.226;2023-02-15T11:53:28;102564.63;;;9.49;87.62
76022;BME280;64718;52.124;6.226;2023-02-15T11:55:58;102564.38;;;9.72;87.61
76022;BME280;64718;52.124;6.226;2023-02-15T11:58:29;102568.69;;;9.74;85.31
76022;BME280;64718;52.124;6.226;2023-02-15T12:01:01;102553.06;;;9.77;84.14
76022;BME280;64718;52.124;6.226;2023-02-15T12:03:43;102549.56;;;9.83;84.53
76022;BME280;64718;52.124;6.226;2023-02-15T12:06:18;102536.50;;;9.89;85.38
76022;BME280;64718;52.124;6.226;2023-02-15T12:08:52;102532.81;;;10.05;82.24
76022;BME280;64718;52.124;6.226;2023-02-15T12:11:23;102534.38;;;10.19;81.95
76022;BME280;64718;52.124;6.226;2023-02-15T12:13:56;102525.66;;;10.24;81.21
76022;BME280;64718;52.124;6.226;2023-02-15T12:16:25;102526.56;;;10.22;80.60
76022;BME280;64718;52.124;6.226;2023-02-15T12:18:53;102523.91;;;10.25;82.05
76022;BME280;64718;52.124;6.226;2023-02-15T12:21:28;102518.81;;;10.15;81.65
76022;BME280;64718;52.124;6.226;2023-02-15T12:23:57;102517.03;;;10.19;80.62
76022;BME280;64718;52.124;6.226;2023-02-15T12:26:26;102516.97;;;10.25;82.28
76022;BME280;64718;52.124;6.226;2023-02-15T12:28:54;102516.16;;;10.19;81.24
76022;BME280;64718;52.124;6.226;2023-02-15T12:31:26;102512.66;;;10.24;80.39
76022;BME280;64718;52.124;6.226;2023-02-15T12:33:54;102505.53;;;10.35;81.58
76022;BME280;64718;52.124;6.226;2023-02-15T12:36:26;102491.31;;;10.59;81.11
76022;BME280;64718;52.124;6.226;2023-02-15T12:39:05;102499.59;;;10.83;80.29
76022;BME280;64718;52.124;6.226;2023-02-15T12:41:45;102498.94;;;10.71;81.08
76022;BME280;64718;52.124;6.226;2023-02-15T12:44:17;102489.50;;;10.64;78.28
76022;BME280;64718;52.124;6.226;2023-02-15T12:46:56;102484.44;;;10.57;77.98
76022;BME280;64718;52.124;6.226;2023-02-15T12:49:22;102486.00;;;10.67;77.76
76022;BME280;64718;52.124;6.226;2023-02-15T12:51:52;102486.03;;;10.65;78.29
76022;BME280;64718;52.124;6.226;2023-02-15T12:54:29;102483.22;;;10.76;77.76
76022;BME280;64718;52.124;6.226;2023-02-15T12:56:56;102477.00;;;10.85;78.67
76022;BME280;64718;52.124;6.226;2023-02-15T12:59:23;102472.72;;;10.82;79.42
76022;BME280;64718;52.124;6.226;2023-02-15T13:01:51;102477.56;;;11.03;77.35
76022;BME280;64718;52.124;6.226;2023-02-15T13:04:23;102474.00;;;11.09;77.75
76022;BME280;64718;52.124;6.226;2023-02-15T13:06:54;102475.63;;;11.15;77.27
76022;BME280;64718;52.124;6.226;2023-02-15T13:09:26;102479.06;;;11.17;76.15
76022;BME280;64718;52.124;6.226;2023-02-15T13:12:15;102478.06;;;11.24;77.56